< < Back
Terminal Aerodrome Forecast


Current Version              Previous Versions:   1  2  3  4  5  6  7  8  9  

Terminal Aerodrome Forecast

223
FTUS42 KCAE 051739
TAFAGS
TAF
KAGS 051739Z 0518/0618 31014G24KT P6SM VCSH BKN060
     FM060000 32010KT P6SM SCT060 BKN150
     FM060800 29007KT P6SM SCT060 BKN150
     FM061500 30008G14KT P6SM SCT040=



Latest METAR

339
SAUS70 KWBC 052200 RRF
MTRAGS
METAR KAGS 052153Z COR 28025G34KT 10SM -RA FEW055 BKN070 OVC090 14/07
A2971 RMK AO2 PK WND 27034/2151 RAB42 PRESRR SLP061 P0000
T01390072


USA.gov is the U.S. government's official web portal to all federal, state and local government web resources and services.